Time;durP1;ratioP1;P1;durP2;ratioP2;P2;SDS_P1;SDS_P2;PMS_P1;PMS_P2;Temp;Humidity;BMP_temperature;BMP_pressure;BME280_temperature;BME280_humidity;BME280_pressure;Samples;Min_cycle;Max_cycle;Signal;HPM_P1;HPM_P2
2022/11/11 00:00:00;;;;;;;;;;;7.00;84.60;;;;;;4957386;28;20021;-84
2022/11/11 00:02:26;;;;;;;;;;;7.00;84.60;;;;;;4950648;28;20007;-82
2022/11/11 00:04:51;;;;;;;;;;;6.90;84.60;;;;;;4944311;28;19922;-83
2022/11/11 00:07:17;;;;;;;;;;;6.90;84.70;;;;;;4963508;28;19942;-84
2022/11/11 00:09:42;;;;;;;;;;;6.90;84.80;;;;;;4935913;28;19922;-82
2022/11/11 00:12:08;;;;;;;;;;;6.90;84.80;;;;;;4972815;28;19925;-82
2022/11/11 00:14:33;;;;;;;;;;;6.90;84.80;;;;;;4955020;28;19973;-82
2022/11/11 00:25:12;;;;;;;;;;;6.90;84.80;;;;;;4966756;28;19928;-82
2022/11/11 00:27:38;;;;;;;;;;;6.90;84.80;;;;;;4979826;28;19930;-83
2022/11/11 00:30:03;;;;;;;;;;;6.90;84.80;;;;;;4941469;28;19918;-83
2022/11/11 00:32:32;;;;;;;;;;;6.90;84.90;;;;;;4939273;28;19922;-82
2022/11/11 00:37:42;;;;;;;;;;;6.90;84.90;;;;;;4938999;28;21181;-84
2022/11/11 00:40:08;;;;;;;;;;;6.90;84.90;;;;;;4950997;28;19993;-82
2022/11/11 00:42:34;;;;;;;;;;;6.90;84.90;;;;;;4937047;28;20357;-82
2022/11/11 00:44:59;;;;;;;;;;;6.90;84.90;;;;;;4947521;28;19918;-82
2022/11/11 00:52:54;;;;;;;;;;;6.80;84.90;;;;;;4943360;28;20042;-83
2022/11/11 00:55:20;;;;;;;;;;;6.80;84.90;;;;;;4944166;28;19958;-81
2022/11/11 00:57:45;;;;;;;;;;;6.80;84.90;;;;;;4973791;28;19929;-82
2022/11/11 01:00:11;;;;;;;;;;;6.80;84.90;;;;;;4923589;28;19933;-82
2022/11/11 01:02:37;;;;;;;;;;;6.80;84.90;;;;;;4944336;28;20293;-83
2022/11/11 01:05:02;;;;;;;;;;;6.80;85.00;;;;;;4934284;28;19922;-82
2022/11/11 01:07:28;;;;;;;;;;;6.80;85.00;;;;;;4934569;28;19922;-83
2022/11/11 01:09:53;;;;;;;;;;;6.80;85.00;;;;;;4928990;28;19925;-83
2022/11/11 01:12:19;;;;;;;;;;;6.80;85.00;;;;;;4917467;29;19919;-82
2022/11/11 01:14:45;;;;;;;;;;;6.80;85.00;;;;;;4951881;28;19925;-83
2022/11/11 01:17:10;;;;;;;;;;;6.80;85.10;;;;;;4954353;28;19923;-82
2022/11/11 01:19:36;;;;;;;;;;;6.80;85.10;;;;;;4944022;28;19957;-82
2022/11/11 01:22:02;;;;;;;;;;;6.80;85.10;;;;;;4945938;28;20006;-83
2022/11/11 01:24:27;;;;;;;;;;;6.80;85.10;;;;;;4949339;28;20339;-82
2022/11/11 01:26:53;;;;;;;;;;;6.80;85.10;;;;;;4931995;28;19967;-83
2022/11/11 01:29:18;;;;;;;;;;;6.80;85.10;;;;;;4932290;28;19915;-82
2022/11/11 01:31:44;;;;;;;;;;;6.80;85.10;;;;;;4938446;28;19948;-82
2022/11/11 01:34:09;;;;;;;;;;;6.80;85.10;;;;;;4951113;28;19922;-82
2022/11/11 01:36:35;;;;;;;;;;;6.80;85.10;;;;;;4932588;28;19914;-82
2022/11/11 01:39:00;;;;;;;;;;;6.80;85.10;;;;;;4948425;28;20304;-83
2022/11/11 01:41:35;;;;;;;;;;;6.80;85.10;;;;;;4946665;28;19919;-82
2022/11/11 01:44:09;;;;;;;;;;;6.80;85.10;;;;;;4927373;28;20037;-82
2022/11/11 01:46:36;;;;;;;;;;;6.80;85.10;;;;;;4964290;28;19977;-82
2022/11/11 01:49:18;;;;;;;;;;;6.80;85.20;;;;;;4949236;28;19919;-83
2022/11/11 01:51:54;;;;;;;;;;;6.80;85.10;;;;;;4970861;28;19937;-82
2022/11/11 01:54:21;;;;;;;;;;;6.80;85.20;;;;;;4935241;28;19918;-83
2022/11/11 01:56:48;;;;;;;;;;;6.80;85.10;;;;;;4934592;28;19926;-82
2022/11/11 01:59:15;;;;;;;;;;;6.80;85.20;;;;;;4952893;28;19927;-82
2022/11/11 02:01:41;;;;;;;;;;;6.80;85.20;;;;;;4953578;28;19983;-82
2022/11/11 02:06:52;;;;;;;;;;;6.80;85.20;;;;;;4984509;28;19929;-83
2022/11/11 02:09:17;;;;;;;;;;;6.90;85.20;;;;;;4958559;28;19922;-82
2022/11/11 02:14:36;;;;;;;;;;;6.90;85.20;;;;;;4969635;28;19956;-83
2022/11/11 02:17:04;;;;;;;;;;;6.90;85.20;;;;;;4947353;28;19969;-83
2022/11/11 02:19:42;;;;;;;;;;;6.90;85.10;;;;;;4965253;28;19980;-83
2022/11/11 02:22:07;;;;;;;;;;;6.80;85.90;;;;;;4973345;28;19934;-84
2022/11/11 02:24:35;;;;;;;;;;;6.90;85.20;;;;;;4943034;28;20004;-82
2022/11/11 02:27:01;;;;;;;;;;;6.80;85.20;;;;;;4950001;28;19918;-81
2022/11/11 02:29:26;;;;;;;;;;;6.90;85.20;;;;;;4954025;28;19924;-82
2022/11/11 02:31:52;;;;;;;;;;;6.90;85.20;;;;;;4954773;28;19922;-82
2022/11/11 02:34:17;;;;;;;;;;;6.90;85.20;;;;;;4985992;28;19917;-82
2022/11/11 02:36:43;;;;;;;;;;;6.90;85.20;;;;;;4955413;28;19968;-82
2022/11/11 02:39:08;;;;;;;;;;;6.90;85.20;;;;;;4974106;28;19941;-82
2022/11/11 02:44:18;;;;;;;;;;;6.90;86.00;;;;;;4970650;28;19928;-82
2022/11/11 02:46:43;;;;;;;;;;;6.90;85.20;;;;;;4956056;28;19925;-83
2022/11/11 02:49:09;;;;;;;;;;;6.80;85.20;;;;;;4957186;28;19914;-82
2022/11/11 02:51:35;;;;;;;;;;;6.80;85.20;;;;;;4956751;28;19918;-83
2022/11/11 02:54:00;;;;;;;;;;;6.90;85.30;;;;;;4990748;28;20257;-83
2022/11/11 02:59:09;;;;;;;;;;;6.90;85.20;;;;;;4955982;28;20049;-82
2022/11/11 03:01:35;;;;;;;;;;;6.90;85.20;;;;;;4943302;28;19938;-83
2022/11/11 03:04:01;;;;;;;;;;;6.90;85.20;;;;;;4939638;28;19964;-82
2022/11/11 03:06:26;;;;;;;;;;;6.90;85.20;;;;;;4959055;28;19952;-83
2022/11/11 03:08:52;;;;;;;;;;;6.90;85.20;;;;;;4936932;28;20324;-83
2022/11/11 03:11:26;;;;;;;;;;;6.90;85.20;;;;;;4964058;28;19933;-82
2022/11/11 03:13:54;;;;;;;;;;;6.90;85.20;;;;;;4928152;28;20029;-83
2022/11/11 03:19:11;;;;;;;;;;;6.90;85.30;;;;;;4930763;28;19928;-82
2022/11/11 03:21:39;;;;;;;;;;;6.90;85.30;;;;;;4918221;28;20532;-83
2022/11/11 03:24:07;;;;;;;;;;;6.90;85.20;;;;;;4911601;28;20400;-83
2022/11/11 03:26:33;;;;;;;;;;;6.90;85.20;;;;;;4905100;28;20538;-83
2022/11/11 03:28:58;;;;;;;;;;;6.90;85.20;;;;;;4953698;28;19915;-82
2022/11/11 03:31:24;;;;;;;;;;;6.80;85.20;;;;;;4939664;28;19918;-82
2022/11/11 03:33:49;;;;;;;;;;;6.80;85.20;;;;;;4935694;28;19949;-83
2022/11/11 03:36:15;;;;;;;;;;;6.80;85.20;;;;;;4973386;28;19918;-83
2022/11/11 03:38:41;;;;;;;;;;;6.80;85.30;;;;;;4931164;28;19977;-83
2022/11/11 03:41:06;;;;;;;;;;;6.90;85.40;;;;;;4941786;28;19920;-83
2022/11/11 03:43:32;;;;;;;;;;;6.90;85.40;;;;;;4941496;28;19926;-83
2022/11/11 03:45:58;;;;;;;;;;;6.90;85.30;;;;;;4942079;28;19914;-83
2022/11/11 03:48:24;;;;;;;;;;;6.90;85.40;;;;;;4933315;28;19922;-83
2022/11/11 03:50:50;;;;;;;;;;;6.90;85.30;;;;;;4936227;28;19918;-82
2022/11/11 03:53:21;;;;;;;;;;;6.90;85.30;;;;;;4964870;28;19957;-82
2022/11/11 03:55:47;;;;;;;;;;;6.80;85.30;;;;;;4941108;28;19926;-83
2022/11/11 03:58:12;;;;;;;;;;;6.80;85.40;;;;;;4963716;28;20273;-83
2022/11/11 04:00:38;;;;;;;;;;;6.80;85.40;;;;;;4971449;28;20009;-83
2022/11/11 04:11:23;;;;;;;;;;;6.80;85.30;;;;;;4970923;28;19929;-83
2022/11/11 04:16:32;;;;;;;;;;;6.80;85.40;;;;;;4965398;28;19942;-82
2022/11/11 04:21:42;;;;;;;;;;;6.90;85.40;;;;;;4976001;28;19925;-83
2022/11/11 04:26:52;;;;;;;;;;;6.80;85.30;;;;;;4960909;28;19938;-83
2022/11/11 04:29:27;;;;;;;;;;;6.80;85.30;;;;;;5003082;23;19926;-77
2022/11/11 04:34:40;;;;;;;;;;;6.70;85.40;;;;;;4993272;28;19925;-78
2022/11/11 04:37:09;;;;;;;;;;;6.80;85.40;;;;;;5014184;28;19925;-77
2022/11/11 04:42:19;;;;;;;;;;;6.70;85.50;;;;;;5034414;28;19964;-77
2022/11/11 04:47:28;;;;;;;;;;;6.70;85.30;;;;;;5035104;28;19933;-78
2022/11/11 04:49:54;;;;;;;;;;;6.70;85.40;;;;;;5004218;28;19917;-78
2022/11/11 04:52:25;;;;;;;;;;;6.70;85.40;;;;;;5020932;28;20129;-77
2022/11/11 04:57:39;;;;;;;;;;;6.80;85.40;;;;;;5035650;28;19985;-78
2022/11/11 05:00:07;;;;;;;;;;;6.80;85.40;;;;;;5037332;28;21796;-79
2022/11/11 05:05:16;;;;;;;;;;;6.80;85.40;;;;;;5006054;28;20545;-78
2022/11/11 05:10:26;;;;;;;;;;;6.90;85.40;;;;;;5013569;28;19970;-78
2022/11/11 05:12:52;;;;;;;;;;;6.90;85.40;;;;;;5011504;28;19917;-78
2022/11/11 05:26:18;;;;;;;;;;;6.80;85.40;;;;;;5016962;28;20419;-76
2022/11/11 05:28:45;;;;;;;;;;;6.80;85.40;;;;;;5018111;28;19929;-78
2022/11/11 05:31:11;;;;;;;;;;;6.80;85.40;;;;;;5011966;28;19925;-78
2022/11/11 05:33:36;;;;;;;;;;;6.80;85.40;;;;;;5017524;28;19994;-79
2022/11/11 05:36:02;;;;;;;;;;;6.80;85.40;;;;;;5012970;28;20332;-77
2022/11/11 05:38:29;;;;;;;;;;;6.90;85.50;;;;;;5032469;28;19926;-78
2022/11/11 05:40:54;;;;;;;;;;;6.90;85.50;;;;;;5031536;28;19928;-77
2022/11/11 05:43:20;;;;;;;;;;;6.80;85.40;;;;;;5013474;28;19925;-77
2022/11/11 05:45:45;;;;;;;;;;;6.90;85.50;;;;;;5006925;28;19928;-77
2022/11/11 05:48:11;;;;;;;;;;;6.90;85.50;;;;;;5031274;28;20270;-78
2022/11/11 05:50:40;;;;;;;;;;;6.90;85.50;;;;;;4999307;28;19921;-78
2022/11/11 05:53:05;;;;;;;;;;;6.90;85.40;;;;;;4989014;28;19957;-78
2022/11/11 05:55:31;;;;;;;;;;;6.80;85.40;;;;;;5011036;28;22075;-77
2022/11/11 05:57:56;;;;;;;;;;;6.80;85.40;;;;;;5031987;28;20028;-77
2022/11/11 06:00:22;;;;;;;;;;;6.80;85.40;;;;;;5015624;28;19925;-77
2022/11/11 06:02:47;;;;;;;;;;;6.90;85.50;;;;;;5013490;28;19917;-78
2022/11/11 06:05:13;;;;;;;;;;;6.90;85.50;;;;;;5033794;28;19925;-77
2022/11/11 06:07:39;;;;;;;;;;;6.90;85.50;;;;;;5013834;28;19976;-78
2022/11/11 06:13:01;;;;;;;;;;;6.90;85.50;;;;;;5018906;28;19943;-77
2022/11/11 06:15:27;;;;;;;;;;;6.90;85.50;;;;;;5008129;28;19917;-77
2022/11/11 06:17:52;;;;;;;;;;;6.90;85.40;;;;;;5031516;28;19933;-76
2022/11/11 06:20:18;;;;;;;;;;;6.90;85.50;;;;;;5014100;28;19939;-76
2022/11/11 06:22:56;;;;;;;;;;;6.90;85.50;;;;;;5030222;28;19931;-77
2022/11/11 06:28:09;;;;;;;;;;;6.90;85.40;;;;;;4998894;28;19960;-76
2022/11/11 06:30:35;;;;;;;;;;;6.90;85.50;;;;;;5019126;28;19924;-76
2022/11/11 06:33:01;;;;;;;;;;;6.90;85.50;;;;;;5006299;28;19932;-76
2022/11/11 06:35:26;;;;;;;;;;;6.80;85.40;;;;;;5024988;28;19921;-76
2022/11/11 06:37:52;;;;;;;;;;;6.80;85.50;;;;;;5037664;28;19929;-78
2022/11/11 06:40:17;;;;;;;;;;;6.90;85.50;;;;;;5019257;28;20381;-78
2022/11/11 06:42:43;;;;;;;;;;;6.90;85.60;;;;;;5036944;28;20313;-76
2022/11/11 06:45:08;;;;;;;;;;;6.90;85.50;;;;;;5020701;28;19917;-78
2022/11/11 06:47:34;;;;;;;;;;;6.90;85.50;;;;;;5036266;28;19921;-77
2022/11/11 06:49:59;;;;;;;;;;;6.90;85.50;;;;;;5024858;28;20376;-76
2022/11/11 06:52:25;;;;;;;;;;;6.90;85.50;;;;;;5008940;28;19918;-76
2022/11/11 06:54:50;;;;;;;;;;;6.90;85.50;;;;;;5040885;28;20027;-77
2022/11/11 06:57:16;;;;;;;;;;;6.90;85.50;;;;;;5038955;28;19913;-76
2022/11/11 06:59:41;;;;;;;;;;;6.90;85.50;;;;;;5006997;28;19917;-77
2022/11/11 07:02:13;;;;;;;;;;;6.90;85.40;;;;;;5047665;28;19917;-76
2022/11/11 07:04:38;;;;;;;;;;;6.90;85.50;;;;;;5025532;28;21013;-76
2022/11/11 07:07:04;;;;;;;;;;;6.90;85.50;;;;;;5029800;28;19961;-77
2022/11/11 07:09:30;;;;;;;;;;;6.80;85.50;;;;;;5029032;28;19917;-76
2022/11/11 07:11:58;;;;;;;;;;;6.90;85.60;;;;;;5022351;28;19932;-77
2022/11/11 07:14:23;;;;;;;;;;;6.90;85.60;;;;;;5028266;28;19918;-76
2022/11/11 07:16:49;;;;;;;;;;;6.90;85.60;;;;;;5030522;28;19917;-77
2022/11/11 07:19:14;;;;;;;;;;;6.90;85.60;;;;;;5029920;28;19952;-78
2022/11/11 07:21:40;;;;;;;;;;;6.90;85.60;;;;;;5030017;28;19929;-76
2022/11/11 07:24:06;;;;;;;;;;;6.90;85.60;;;;;;5010315;28;19924;-76
2022/11/11 07:26:31;;;;;;;;;;;6.90;85.60;;;;;;5029690;28;19976;-76
2022/11/11 07:28:57;;;;;;;;;;;6.90;85.60;;;;;;5022487;28;19917;-77
2022/11/11 07:31:22;;;;;;;;;;;6.90;85.50;;;;;;5046455;28;19929;-76
2022/11/11 07:33:48;;;;;;;;;;;6.90;85.60;;;;;;5030567;28;19928;-76
2022/11/11 07:36:13;;;;;;;;;;;6.90;85.60;;;;;;5047409;28;20436;-77
2022/11/11 07:38:39;;;;;;;;;;;7.00;85.60;;;;;;5013434;28;19940;-78
2022/11/11 07:41:04;;;;;;;;;;;7.00;85.60;;;;;;5047994;28;19999;-78
2022/11/11 07:43:30;;;;;;;;;;;7.00;85.60;;;;;;5049122;28;19921;-78
2022/11/11 07:45:55;;;;;;;;;;;7.00;85.50;;;;;;5040374;28;20031;-79
2022/11/11 07:48:21;;;;;;;;;;;7.00;85.50;;;;;;5022573;28;19921;-79
2022/11/11 07:50:46;;;;;;;;;;;7.00;85.50;;;;;;5028650;28;19932;-78
2022/11/11 07:53:12;;;;;;;;;;;6.90;85.50;;;;;;5041886;28;19928;-73
2022/11/11 07:55:37;;;;;;;;;;;6.90;85.50;;;;;;5040027;28;19951;-78
2022/11/11 07:58:03;;;;;;;;;;;6.90;85.60;;;;;;5023740;28;19931;-78
2022/11/11 08:00:28;;;;;;;;;;;7.00;85.60;;;;;;5025013;28;20447;-77
2022/11/11 08:02:54;;;;;;;;;;;7.00;85.50;;;;;;5017772;28;20012;-78
2022/11/11 08:05:19;;;;;;;;;;;7.00;85.60;;;;;;5033026;28;19967;-79
2022/11/11 08:07:45;;;;;;;;;;;7.00;85.60;;;;;;5041616;28;20404;-78
2022/11/11 08:10:11;;;;;;;;;;;6.90;85.60;;;;;;5019402;28;19944;-76
2022/11/11 08:15:21;;;;;;;;;;;7.00;85.60;;;;;;5029140;28;19959;-78
2022/11/11 08:17:46;;;;;;;;;;;7.00;85.60;;;;;;5029510;28;20013;-76
2022/11/11 08:20:12;;;;;;;;;;;7.10;85.60;;;;;;5025144;28;19921;-78
2022/11/11 08:22:38;;;;;;;;;;;7.10;85.60;;;;;;5025300;28;19933;-78
2022/11/11 08:25:06;;;;;;;;;;;7.10;85.60;;;;;;5025744;28;19927;-77
2022/11/11 08:27:32;;;;;;;;;;;7.10;85.60;;;;;;5027352;28;19940;-77
2022/11/11 08:29:58;;;;;;;;;;;7.00;85.60;;;;;;5031055;28;19925;-78
2022/11/11 08:32:23;;;;;;;;;;;7.10;85.70;;;;;;5020483;28;19944;-78
2022/11/11 08:34:49;;;;;;;;;;;7.00;85.60;;;;;;5046494;28;19963;-78
2022/11/11 08:37:14;;;;;;;;;;;7.00;85.70;;;;;;5044782;28;19917;-77
2022/11/11 08:39:40;;;;;;;;;;;7.00;85.70;;;;;;5050060;28;19928;-77
2022/11/11 08:42:06;;;;;;;;;;;7.10;85.80;;;;;;5020671;28;19932;-78
2022/11/11 08:44:31;;;;;;;;;;;7.10;85.80;;;;;;5030219;28;19916;-78
2022/11/11 08:46:57;;;;;;;;;;;7.10;85.70;;;;;;5019627;28;19924;-79
2022/11/11 08:49:22;;;;;;;;;;;7.10;85.70;;;;;;5037467;28;19979;-77
2022/11/11 08:51:48;;;;;;;;;;;7.10;85.70;;;;;;5042358;28;19974;-77
2022/11/11 08:54:13;;;;;;;;;;;7.20;85.70;;;;;;5044018;28;19917;-79
2022/11/11 08:56:39;;;;;;;;;;;7.20;85.60;;;;;;5039072;28;19921;-77
2022/11/11 08:59:05;;;;;;;;;;;7.20;85.60;;;;;;5013575;28;19943;-77
2022/11/11 09:01:30;;;;;;;;;;;7.20;85.60;;;;;;4999666;28;19948;-78
2022/11/11 09:03:56;;;;;;;;;;;7.20;85.60;;;;;;5039573;28;19917;-78
2022/11/11 09:06:21;;;;;;;;;;;7.20;85.60;;;;;;5012586;28;19920;-75
2022/11/11 09:08:50;;;;;;;;;;;7.30;85.70;;;;;;5011165;28;20417;-74
2022/11/11 09:11:16;;;;;;;;;;;7.30;85.60;;;;;;4983182;28;19921;-75
2022/11/11 09:13:42;;;;;;;;;;;7.30;85.60;;;;;;4998281;28;19936;-77
2022/11/11 09:16:07;;;;;;;;;;;7.30;85.50;;;;;;5007335;28;19944;-76
2022/11/11 09:18:34;;;;;;;;;;;7.40;85.60;;;;;;5000319;28;20011;-77
2022/11/11 09:20:59;;;;;;;;;;;7.40;85.60;;;;;;4989377;28;20015;-75
2022/11/11 09:23:25;;;;;;;;;;;7.40;85.50;;;;;;4982537;28;20028;-75
2022/11/11 09:25:50;;;;;;;;;;;7.50;85.50;;;;;;5002042;28;19921;-77
2022/11/11 09:28:19;;;;;;;;;;;7.50;85.50;;;;;;4978173;28;19979;-74
2022/11/11 09:30:45;;;;;;;;;;;7.60;85.50;;;;;;4992885;28;19988;-75
2022/11/11 09:33:11;;;;;;;;;;;7.60;86.20;;;;;;4976530;28;19964;-73
2022/11/11 09:35:40;;;;;;;;;;;7.60;85.40;;;;;;4972087;28;19917;-74
2022/11/11 09:38:06;;;;;;;;;;;7.60;85.30;;;;;;4993866;28;19955;-75
2022/11/11 09:41:01;;;;;;;;;;;7.60;85.30;;;;;;4973612;28;19917;-76
2022/11/11 09:43:39;;;;;;;;;;;7.70;85.30;;;;;;5018035;28;20473;-75
2022/11/11 09:46:11;;;;;;;;;;;7.70;85.30;;;;;;4990060;28;19924;-77
2022/11/11 09:48:47;;;;;;;;;;;7.70;85.30;;;;;;5046233;28;19912;-76
2022/11/11 09:51:15;;;;;;;;;;;7.70;85.30;;;;;;5017572;28;19998;-76
2022/11/11 09:53:41;;;;;;;;;;;7.80;85.30;;;;;;5044836;28;19945;-76
2022/11/11 09:56:08;;;;;;;;;;;7.80;85.30;;;;;;5034052;28;19927;-76
2022/11/11 09:58:47;;;;;;;;;;;7.80;85.30;;;;;;5033904;28;19916;-77
2022/11/11 10:01:17;;;;;;;;;;;7.80;85.20;;;;;;5030115;28;19947;-74
2022/11/11 10:03:52;;;;;;;;;;;7.80;85.20;;;;;;5016947;28;19948;-75
2022/11/11 10:06:19;;;;;;;;;;;7.90;85.20;;;;;;5039951;28;19917;-77
2022/11/11 10:09:01;;;;;;;;;;;7.90;85.20;;;;;;5048715;28;19936;-76
2022/11/11 10:11:45;;;;;;;;;;;7.90;85.20;;;;;;5015230;28;19944;-74
2022/11/11 10:14:11;;;;;;;;;;;7.90;85.20;;;;;;5044619;28;19977;-76
2022/11/11 10:16:51;;;;;;;;;;;8.00;85.10;;;;;;5029451;28;19940;-76
2022/11/11 10:19:20;;;;;;;;;;;7.90;85.10;;;;;;5031965;28;19921;-76
2022/11/11 10:21:50;;;;;;;;;;;7.90;85.20;;;;;;5011926;28;20028;-76
2022/11/11 10:24:16;;;;;;;;;;;8.00;85.30;;;;;;5010997;28;19928;-76
2022/11/11 10:26:42;;;;;;;;;;;8.00;85.20;;;;;;5014198;28;19922;-76
2022/11/11 10:29:10;;;;;;;;;;;8.00;85.10;;;;;;5024296;28;22279;-76
2022/11/11 10:31:35;;;;;;;;;;;8.00;85.10;;;;;;5027827;28;20152;-76
2022/11/11 10:34:02;;;;;;;;;;;8.10;85.10;;;;;;5031667;28;19951;-75
2022/11/11 10:36:27;;;;;;;;;;;8.10;85.20;;;;;;5026004;28;19924;-76
2022/11/11 10:38:54;;;;;;;;;;;8.10;85.10;;;;;;5008338;28;20337;-76
2022/11/11 10:41:39;;;;;;;;;;;8.10;85.10;;;;;;5029618;28;19917;-76
2022/11/11 10:44:20;;;;;;;;;;;8.10;85.10;;;;;;5026839;28;19909;-75
2022/11/11 10:46:50;;;;;;;;;;;8.20;85.10;;;;;;5038230;28;19921;-75
2022/11/11 10:49:19;;;;;;;;;;;8.20;85.00;;;;;;5019729;28;19917;-77
2022/11/11 10:52:14;;;;;;;;;;;8.30;85.00;;;;;;5032683;28;19922;-76
2022/11/11 10:54:59;;;;;;;;;;;8.40;85.00;;;;;;5029137;28;19919;-76
2022/11/11 10:57:38;;;;;;;;;;;8.40;84.90;;;;;;5027641;28;19917;-76
2022/11/11 11:00:13;;;;;;;;;;;8.40;85.00;;;;;;5017039;28;19975;-76
2022/11/11 11:02:55;;;;;;;;;;;8.40;84.80;;;;;;5046271;28;19952;-75
2022/11/11 11:05:23;;;;;;;;;;;8.50;84.90;;;;;;5040968;28;21410;-76
2022/11/11 11:07:50;;;;;;;;;;;8.60;84.90;;;;;;5029445;28;19925;-76
2022/11/11 11:10:29;;;;;;;;;;;8.60;84.90;;;;;;5034601;28;19921;-76
2022/11/11 11:12:59;;;;;;;;;;;8.60;84.80;;;;;;5017516;28;19948;-76
2022/11/11 11:15:25;;;;;;;;;;;8.70;84.80;;;;;;5029492;28;19928;-75
2022/11/11 11:17:57;;;;;;;;;;;8.70;84.70;;;;;;5032232;28;19925;-76
2022/11/11 11:20:22;;;;;;;;;;;8.80;84.80;;;;;;5043105;28;19984;-77
2022/11/11 11:22:52;;;;;;;;;;;8.80;84.70;;;;;;5030161;28;20184;-76
2022/11/11 11:25:20;;;;;;;;;;;8.80;84.60;;;;;;5033861;28;19924;-75
2022/11/11 11:27:46;;;;;;;;;;;8.90;84.60;;;;;;5008161;28;19951;-76
2022/11/11 11:30:12;;;;;;;;;;;8.90;84.60;;;;;;5013502;28;19961;-77
2022/11/11 11:32:37;;;;;;;;;;;8.90;84.70;;;;;;5047991;28;19910;-76
2022/11/11 11:35:03;;;;;;;;;;;8.90;84.70;;;;;;5031467;28;19951;-75
2022/11/11 11:37:28;;;;;;;;;;;9.00;84.70;;;;;;5028202;28;19925;-76
2022/11/11 11:40:01;;;;;;;;;;;9.00;84.70;;;;;;5020828;28;19932;-77
2022/11/11 11:42:27;;;;;;;;;;;9.10;84.70;;;;;;5045572;28;19972;-75
2022/11/11 11:44:52;;;;;;;;;;;9.10;84.60;;;;;;5046184;28;19917;-76
2022/11/11 11:47:24;;;;;;;;;;;9.20;84.50;;;;;;5049349;28;19943;-76
2022/11/11 11:50:16;;;;;;;;;;;9.30;84.60;;;;;;5040611;28;20266;-76
2022/11/11 11:52:51;;;;;;;;;;;9.30;84.50;;;;;;5017526;28;20008;-76
2022/11/11 11:55:18;;;;;;;;;;;9.40;84.50;;;;;;5014083;28;19984;-76
2022/11/11 11:57:54;;;;;;;;;;;9.40;84.40;;;;;;5019541;28;19924;-75
2022/11/11 12:00:21;;;;;;;;;;;9.40;84.30;;;;;;5036203;28;22035;-76
2022/11/11 12:03:05;;;;;;;;;;;9.50;84.30;;;;;;5025724;28;19943;-76
2022/11/11 12:05:48;;;;;;;;;;;9.50;84.30;;;;;;5019546;28;19940;-77
2022/11/11 12:08:19;;;;;;;;;;;9.50;84.20;;;;;;5019008;28;19943;-76
2022/11/11 12:10:54;;;;;;;;;;;9.60;84.30;;;;;;5037885;28;19925;-76
2022/11/11 12:13:38;;;;;;;;;;;9.60;84.20;;;;;;5039685;28;19913;-77
2022/11/11 12:16:04;;;;;;;;;;;9.60;84.20;;;;;;5040967;28;20416;-77
2022/11/11 12:18:38;;;;;;;;;;;9.70;84.20;;;;;;5041490;28;19917;-75
2022/11/11 12:21:07;;;;;;;;;;;9.70;84.20;;;;;;5036910;28;19925;-76
2022/11/11 12:23:44;;;;;;;;;;;9.70;84.20;;;;;;5020942;28;19985;-76
2022/11/11 12:26:12;;;;;;;;;;;9.80;84.10;;;;;;5036103;28;19921;-76
2022/11/11 12:28:52;;;;;;;;;;;9.80;84.10;;;;;;5005916;28;19924;-76
2022/11/11 12:31:23;;;;;;;;;;;9.90;84.00;;;;;;5027824;28;19947;-76
2022/11/11 12:34:01;;;;;;;;;;;9.90;83.90;;;;;;5019101;28;19921;-72
2022/11/11 12:36:36;;;;;;;;;;;9.90;83.90;;;;;;5035240;28;19917;-73
2022/11/11 12:39:04;;;;;;;;;;;9.90;83.90;;;;;;5038295;28;19929;-73
2022/11/11 12:41:41;;;;;;;;;;;10.00;84.00;;;;;;5012474;28;19924;-74
2022/11/11 12:44:07;;;;;;;;;;;10.00;83.90;;;;;;5041086;28;19947;-77
2022/11/11 12:46:52;;;;;;;;;;;10.00;83.80;;;;;;5026178;28;19917;-77
2022/11/11 12:49:33;;;;;;;;;;;10.00;83.90;;;;;;5020339;28;20014;-77
2022/11/11 12:51:58;;;;;;;;;;;10.00;84.00;;;;;;5020877;28;19917;-77
2022/11/11 12:54:30;;;;;;;;;;;10.00;84.00;;;;;;5029209;28;19931;-77
2022/11/11 12:57:16;;;;;;;;;;;10.00;84.00;;;;;;5027711;28;20226;-77
2022/11/11 12:59:47;;;;;;;;;;;10.00;83.90;;;;;;5042407;28;19917;-77
2022/11/11 13:02:22;;;;;;;;;;;10.00;83.90;;;;;;5043128;28;20020;-77
2022/11/11 13:04:49;;;;;;;;;;;10.00;84.00;;;;;;5040658;28;20379;-77
2022/11/11 13:07:33;;;;;;;;;;;10.00;84.00;;;;;;5024253;28;19951;-77
2022/11/11 13:10:04;;;;;;;;;;;10.00;83.90;;;;;;5022126;28;19939;-77
2022/11/11 13:12:30;;;;;;;;;;;10.00;83.90;;;;;;5021377;28;19925;-77
2022/11/11 13:15:16;;;;;;;;;;;10.00;84.00;;;;;;5021877;28;19924;-76
2022/11/11 13:17:42;;;;;;;;;;;10.00;84.00;;;;;;5037233;28;19983;-77
2022/11/11 13:20:16;;;;;;;;;;;10.10;84.00;;;;;;5023324;28;19925;-77
2022/11/11 13:22:41;;;;;;;;;;;10.10;84.00;;;;;;5043222;28;19925;-76
2022/11/11 13:25:12;;;;;;;;;;;10.20;84.00;;;;;;5042719;28;20111;-77
2022/11/11 13:27:38;;;;;;;;;;;10.20;83.80;;;;;;5019270;28;19955;-77
2022/11/11 13:30:17;;;;;;;;;;;10.20;83.70;;;;;;5033319;28;19925;-77
2022/11/11 13:32:46;;;;;;;;;;;10.30;83.80;;;;;;5038662;28;19917;-77
2022/11/11 13:35:18;;;;;;;;;;;10.30;83.80;;;;;;5019591;28;19918;-77
2022/11/11 13:37:44;;;;;;;;;;;10.30;83.70;;;;;;5025787;28;19952;-77
2022/11/11 13:40:17;;;;;;;;;;;10.30;83.80;;;;;;5021975;28;19917;-76
2022/11/11 13:42:45;;;;;;;;;;;10.40;83.80;;;;;;5018182;28;19971;-76
2022/11/11 13:45:27;;;;;;;;;;;10.40;83.70;;;;;;5025894;28;19914;-77
2022/11/11 13:47:52;;;;;;;;;;;10.40;83.60;;;;;;5016113;28;19947;-77
2022/11/11 13:50:23;;;;;;;;;;;10.50;83.60;;;;;;5008307;28;19932;-77
2022/11/11 13:52:59;;;;;;;;;;;10.50;83.50;;;;;;5019228;28;19932;-77
2022/11/11 13:55:27;;;;;;;;;;;10.50;83.50;;;;;;5015183;28;19918;-75
2022/11/11 13:57:53;;;;;;;;;;;10.50;83.40;;;;;;5021299;28;20420;-76
2022/11/11 14:00:21;;;;;;;;;;;10.50;83.30;;;;;;4995295;28;19980;-77
2022/11/11 14:02:47;;;;;;;;;;;10.50;83.40;;;;;;5030125;28;19924;-78
2022/11/11 14:05:16;;;;;;;;;;;10.50;83.50;;;;;;5023396;28;19917;-77
2022/11/11 14:07:47;;;;;;;;;;;10.50;83.50;;;;;;5024617;28;19947;-77
2022/11/11 14:10:16;;;;;;;;;;;10.50;83.60;;;;;;5017661;28;20348;-76
2022/11/11 14:12:45;;;;;;;;;;;10.50;83.60;;;;;;5040321;28;19922;-76
2022/11/11 14:15:29;;;;;;;;;;;10.50;83.50;;;;;;5003040;28;19925;-77
2022/11/11 14:17:54;;;;;;;;;;;10.50;83.50;;;;;;5018976;28;19936;-77
2022/11/11 14:20:28;;;;;;;;;;;10.50;83.50;;;;;;5019642;28;19921;-76
2022/11/11 14:22:54;;;;;;;;;;;10.50;83.50;;;;;;5039753;28;19924;-78
2022/11/11 14:25:19;;;;;;;;;;;10.50;83.50;;;;;;5050091;28;19915;-76
2022/11/11 14:27:45;;;;;;;;;;;10.50;83.50;;;;;;5030346;28;19924;-77
2022/11/11 14:30:12;;;;;;;;;;;10.50;83.50;;;;;;5045490;28;19929;-77
2022/11/11 14:32:43;;;;;;;;;;;10.50;83.50;;;;;;5030342;28;19932;-75
2022/11/11 14:35:11;;;;;;;;;;;10.60;83.50;;;;;;5030682;28;19916;-76
2022/11/11 14:37:55;;;;;;;;;;;10.50;83.40;;;;;;5048913;28;19905;-76
2022/11/11 14:40:27;;;;;;;;;;;10.50;83.40;;;;;;5045749;28;19925;-77
2022/11/11 14:42:52;;;;;;;;;;;10.50;83.50;;;;;;5028577;28;19925;-76
2022/11/11 14:45:30;;;;;;;;;;;10.50;83.50;;;;;;5029045;28;19928;-77
2022/11/11 14:47:57;;;;;;;;;;;10.50;83.50;;;;;;5046906;28;19925;-77
2022/11/11 14:50:31;;;;;;;;;;;10.50;83.50;;;;;;5011612;28;19970;-75
2022/11/11 14:52:57;;;;;;;;;;;10.50;83.50;;;;;;5047231;28;19925;-76
2022/11/11 14:55:26;;;;;;;;;;;10.50;83.50;;;;;;5031158;28;19963;-76
2022/11/11 14:58:07;;;;;;;;;;;10.50;83.50;;;;;;5047277;28;19921;-75
2022/11/11 15:00:44;;;;;;;;;;;10.50;83.50;;;;;;5050037;28;19906;-77
2022/11/11 15:03:27;;;;;;;;;;;10.50;83.50;;;;;;5042458;28;19917;-76
2022/11/11 15:06:11;;;;;;;;;;;10.50;83.50;;;;;;5048413;28;19940;-77
2022/11/11 15:08:55;;;;;;;;;;;10.50;83.50;;;;;;5016087;28;20544;-76
2022/11/11 15:11:27;;;;;;;;;;;10.50;83.40;;;;;;5019183;28;19925;-76
2022/11/11 15:14:08;;;;;;;;;;;10.40;83.40;;;;;;5030186;28;19932;-77
2022/11/11 15:16:49;;;;;;;;;;;10.40;83.50;;;;;;5043572;28;20007;-77
2022/11/11 15:19:33;;;;;;;;;;;10.40;83.50;;;;;;5012875;28;19938;-77
2022/11/11 15:22:22;;;;;;;;;;;10.30;83.50;;;;;;5053552;28;19996;-77
2022/11/11 15:25:06;;;;;;;;;;;10.30;83.60;;;;;;4990985;28;19917;-76
2022/11/11 15:27:31;;;;;;;;;;;10.30;83.70;;;;;;5034200;28;20000;-77
2022/11/11 15:30:09;;;;;;;;;;;10.30;83.70;;;;;;5054710;28;19951;-76
2022/11/11 15:32:42;;;;;;;;;;;10.30;83.70;;;;;;5032555;28;19917;-76
2022/11/11 15:35:24;;;;;;;;;;;10.30;83.60;;;;;;5012230;28;19913;-76
2022/11/11 15:37:55;;;;;;;;;;;10.30;83.70;;;;;;5030488;28;19921;-76
2022/11/11 15:40:21;;;;;;;;;;;10.20;83.70;;;;;;5040377;28;19951;-76
2022/11/11 15:42:48;;;;;;;;;;;10.20;83.70;;;;;;5032747;28;19999;-76
2022/11/11 15:45:17;;;;;;;;;;;10.20;83.80;;;;;;5015783;28;19921;-77
2022/11/11 15:47:42;;;;;;;;;;;10.10;83.80;;;;;;5024299;28;19917;-76
2022/11/11 15:50:15;;;;;;;;;;;10.10;83.80;;;;;;5019275;28;19912;-76
2022/11/11 15:52:40;;;;;;;;;;;10.10;83.90;;;;;;5048342;28;19992;-76
2022/11/11 15:55:39;;;;;;;;;;;10.10;83.90;;;;;;5044035;28;19920;-75
2022/11/11 15:58:10;;;;;;;;;;;10.10;83.90;;;;;;4961870;28;19917;-72